sensor_id;sensor_type;location;lat;lon;timestamp;pressure;altitude;pressure_sealevel;temperature;humidity
4415;BME280;2220;42.670;23.398;2023-01-26T00:01:58;94500.91;;;-0.52;100.00
4415;BME280;2220;42.670;23.398;2023-01-26T00:04:23;94513.13;;;-0.41;100.00
4415;BME280;2220;42.670;23.398;2023-01-26T00:06:49;94508.81;;;-0.47;100.00
4415;BME280;2220;42.670;23.398;2023-01-26T00:09:14;94508.19;;;-0.42;100.00
4415;BME280;2220;42.670;23.398;2023-01-26T00:11:40;94508.19;;;-0.42;100.00
4415;BME280;2220;42.670;23.398;2023-01-26T00:14:06;94499.72;;;-0.49;100.00
4415;BME280;2220;42.670;23.398;2023-01-26T00:16:31;94491.88;;;-0.35;100.00
4415;BME280;2220;42.670;23.398;2023-01-26T00:18:56;94504.44;;;-0.53;100.00
4415;BME280;2220;42.670;23.398;2023-01-26T00:21:22;94507.41;;;-0.56;100.00
4415;BME280;2220;42.670;23.398;2023-01-26T00:23:50;94499.34;;;-0.46;100.00
4415;BME280;2220;42.670;23.398;2023-01-26T00:26:18;94489.47;;;-0.63;100.00
4415;BME280;2220;42.670;23.398;2023-01-26T00:28:44;94497.72;;;-0.61;100.00
4415;BME280;2220;42.670;23.398;2023-01-26T00:31:18;94492.84;;;-0.49;100.00
4415;BME280;2220;42.670;23.398;2023-01-26T00:33:44;94479.84;;;-0.54;100.00
4415;BME280;2220;42.670;23.398;2023-01-26T00:36:10;94468.22;;;-0.57;100.00
4415;BME280;2220;42.670;23.398;2023-01-26T00:38:36;94455.84;;;-0.53;100.00
4415;BME280;2220;42.670;23.398;2023-01-26T00:41:02;94444.78;;;-0.60;100.00
4415;BME280;2220;42.670;23.398;2023-01-26T00:43:27;94454.44;;;-0.62;100.00
4415;BME280;2220;42.670;23.398;2023-01-26T00:45:53;94455.63;;;-0.51;100.00
4415;BME280;2220;42.670;23.398;2023-01-26T00:48:18;94446.00;;;-0.49;100.00
4415;BME280;2220;42.670;23.398;2023-01-26T00:50:43;94441.28;;;-0.33;100.00
4415;BME280;2220;42.670;23.398;2023-01-26T00:53:09;94426.75;;;-0.39;100.00
4415;BME280;2220;42.670;23.398;2023-01-26T00:55:35;94432.03;;;-0.34;100.00
4415;BME280;2220;42.670;23.398;2023-01-26T00:58:02;94431.03;;;-0.59;100.00
4415;BME280;2220;42.670;23.398;2023-01-26T01:00:29;94428.47;;;-0.59;100.00
4415;BME280;2220;42.670;23.398;2023-01-26T01:02:55;94419.41;;;-0.48;100.00
4415;BME280;2220;42.670;23.398;2023-01-26T01:05:22;94415.69;;;-0.33;100.00
4415;BME280;2220;42.670;23.398;2023-01-26T01:07:47;94404.69;;;-0.40;100.00
4415;BME280;2220;42.670;23.398;2023-01-26T01:10:13;94396.41;;;-0.35;100.00
4415;BME280;2220;42.670;23.398;2023-01-26T01:12:38;94398.59;;;-0.32;100.00
4415;BME280;2220;42.670;23.398;2023-01-26T01:15:04;94395.03;;;-0.38;100.00
4415;BME280;2220;42.670;23.398;2023-01-26T01:17:30;94395.41;;;-0.41;100.00
4415;BME280;2220;42.670;23.398;2023-01-26T01:19:55;94399.94;;;-0.63;100.00
4415;BME280;2220;42.670;23.398;2023-01-26T01:22:21;94386.19;;;-0.55;100.00
4415;BME280;2220;42.670;23.398;2023-01-26T01:24:46;94375.72;;;-0.60;100.00
4415;BME280;2220;42.670;23.398;2023-01-26T01:27:12;94384.97;;;-0.59;100.00
4415;BME280;2220;42.670;23.398;2023-01-26T01:29:37;94386.34;;;-0.50;100.00
4415;BME280;2220;42.670;23.398;2023-01-26T01:32:03;94369.66;;;-0.46;100.00
4415;BME280;2220;42.670;23.398;2023-01-26T01:34:28;94369.25;;;-0.43;100.00
4415;BME280;2220;42.670;23.398;2023-01-26T01:36:54;94358.63;;;-0.53;100.00
4415;BME280;2220;42.670;23.398;2023-01-26T01:39:19;94365.31;;;-0.45;100.00
4415;BME280;2220;42.670;23.398;2023-01-26T01:41:45;94356.66;;;-0.38;100.00
4415;BME280;2220;42.670;23.398;2023-01-26T01:44:18;94350.34;;;-0.35;100.00
4415;BME280;2220;42.670;23.398;2023-01-26T01:49:18;94351.72;;;-0.52;100.00
4415;BME280;2220;42.670;23.398;2023-01-26T01:51:53;94340.53;;;-0.45;100.00
4415;BME280;2220;42.670;23.398;2023-01-26T01:54:29;94352.72;;;-0.47;100.00
4415;BME280;2220;42.670;23.398;2023-01-26T01:57:00;94335.78;;;-0.54;100.00
4415;BME280;2220;42.670;23.398;2023-01-26T01:59:27;94342.69;;;-0.55;100.00
4415;BME280;2220;42.670;23.398;2023-01-26T02:01:54;94343.06;;;-0.58;100.00
4415;BME280;2220;42.670;23.398;2023-01-26T02:04:21;94339.34;;;-0.62;100.00
4415;BME280;2220;42.670;23.398;2023-01-26T02:06:50;94332.84;;;-0.58;100.00
4415;BME280;2220;42.670;23.398;2023-01-26T02:09:20;94321.22;;;-0.67;100.00
4415;BME280;2220;42.670;23.398;2023-01-26T02:12:06;94329.84;;;-0.81;100.00
4415;BME280;2220;42.670;23.398;2023-01-26T02:14:34;94332.63;;;-0.83;100.00
4415;BME280;2220;42.670;23.398;2023-01-26T02:16:59;94327.72;;;-0.71;100.00
4415;BME280;2220;42.670;23.398;2023-01-26T02:25:05;94312.75;;;-0.68;100.00
4415;BME280;2220;42.670;23.398;2023-01-26T02:27:32;94309.63;;;-0.70;100.00
4415;BME280;2220;42.670;23.398;2023-01-26T02:29:58;94310.97;;;-0.80;100.00
4415;BME280;2220;42.670;23.398;2023-01-26T02:32:24;94307.44;;;-0.66;100.00
4415;BME280;2220;42.670;23.398;2023-01-26T02:34:56;94299.19;;;-0.48;100.00
4415;BME280;2220;42.670;23.398;2023-01-26T02:37:22;94289.56;;;-0.53;100.00
4415;BME280;2220;42.670;23.398;2023-01-26T02:40:08;94290.53;;;-0.61;100.00
4415;BME280;2220;42.670;23.398;2023-01-26T02:42:37;94296.63;;;-0.55;100.00
4415;BME280;2220;42.670;23.398;2023-01-26T02:45:21;94303.91;;;-0.78;100.00
4415;BME280;2220;42.670;23.398;2023-01-26T02:47:47;94306.66;;;-0.73;100.00
4415;BME280;2220;42.670;23.398;2023-01-26T02:50:12;94306.03;;;-0.89;100.00
4415;BME280;2220;42.670;23.398;2023-01-26T02:52:38;94308.63;;;-0.75;100.00
4415;BME280;2220;42.670;23.398;2023-01-26T02:55:04;94301.94;;;-0.83;100.00
4415;BME280;2220;42.670;23.398;2023-01-26T02:57:52;94298.22;;;-0.87;100.00
4415;BME280;2220;42.670;23.398;2023-01-26T03:00:20;94293.69;;;-0.78;100.00
4415;BME280;2220;42.670;23.398;2023-01-26T03:02:47;94292.91;;;-0.79;100.00
4415;BME280;2220;42.670;23.398;2023-01-26T03:05:14;94289.75;;;-0.88;100.00
4415;BME280;2220;42.670;23.398;2023-01-26T03:07:39;94296.81;;;-0.90;100.00
4415;BME280;2220;42.670;23.398;2023-01-26T03:10:05;94297.59;;;-1.02;100.00
4415;BME280;2220;42.670;23.398;2023-01-26T03:12:31;94304.47;;;-0.90;100.00
4415;BME280;2220;42.670;23.398;2023-01-26T03:14:56;94290.50;;;-0.80;100.00
4415;BME280;2220;42.670;23.398;2023-01-26T03:17:40;94294.25;;;-0.90;100.00
4415;BME280;2220;42.670;23.398;2023-01-26T03:20:06;94288.34;;;-1.03;100.00
4415;BME280;2220;42.670;23.398;2023-01-26T03:22:50;94284.81;;;-1.02;100.00
4415;BME280;2220;42.670;23.398;2023-01-26T03:25:35;94285.22;;;-0.92;100.00
4415;BME280;2220;42.670;23.398;2023-01-26T03:28:19;94279.09;;;-1.04;100.00
4415;BME280;2220;42.670;23.398;2023-01-26T03:30:47;94271.84;;;-1.01;100.00
4415;BME280;2220;42.670;23.398;2023-01-26T03:33:14;94275.38;;;-1.02;100.00
4415;BME280;2220;42.670;23.398;2023-01-26T03:35:39;94270.06;;;-1.07;100.00
4415;BME280;2220;42.670;23.398;2023-01-26T03:38:05;94277.72;;;-1.07;100.00
4415;BME280;2220;42.670;23.398;2023-01-26T03:40:30;94275.19;;;-0.94;100.00
4415;BME280;2220;42.670;23.398;2023-01-26T03:43:14;94278.31;;;-0.98;100.00
4415;BME280;2220;42.670;23.398;2023-01-26T03:46:00;94272.03;;;-0.96;100.00
4415;BME280;2220;42.670;23.398;2023-01-26T03:48:44;94277.34;;;-1.04;100.00
4415;BME280;2220;42.670;23.398;2023-01-26T03:51:28;94272.03;;;-1.02;100.00
4415;BME280;2220;42.670;23.398;2023-01-26T03:54:12;94276.75;;;-0.99;100.00
4415;BME280;2220;42.670;23.398;2023-01-26T03:56:56;94276.94;;;-1.01;100.00
4415;BME280;2220;42.670;23.398;2023-01-26T03:59:21;94276.75;;;-0.99;100.00
4415;BME280;2220;42.670;23.398;2023-01-26T04:02:03;94275.75;;;-1.05;100.00
4415;BME280;2220;42.670;23.398;2023-01-26T04:04:47;94257.50;;;-0.95;100.00
4415;BME280;2220;42.670;23.398;2023-01-26T04:07:31;94268.50;;;-1.01;100.00
4415;BME280;2220;42.670;23.398;2023-01-26T04:10:15;94272.03;;;-0.96;100.00
4415;BME280;2220;42.670;23.398;2023-01-26T04:12:40;94272.22;;;-1.04;100.00
4415;BME280;2220;42.670;23.398;2023-01-26T04:15:06;94268.88;;;-1.11;100.00
4415;BME280;2220;42.670;23.398;2023-01-26T04:17:50;94263.19;;;-1.00;100.00
4415;BME280;2220;42.670;23.398;2023-01-26T04:20:34;94266.13;;;-0.90;100.00
4415;BME280;2220;42.670;23.398;2023-01-26T04:23:18;94247.25;;;-1.02;100.00
4415;BME280;2220;42.670;23.398;2023-01-26T04:25:43;94245.28;;;-1.06;100.00
4415;BME280;2220;42.670;23.398;2023-01-26T04:28:09;94241.72;;;-1.05;100.00
4415;BME280;2220;42.670;23.398;2023-01-26T04:30:34;94238.19;;;-0.98;100.00
4415;BME280;2220;42.670;23.398;2023-01-26T04:32:59;94245.88;;;-0.98;100.00
4415;BME280;2220;42.670;23.398;2023-01-26T04:35:25;94241.94;;;-0.94;100.00
4415;BME280;2220;42.670;23.398;2023-01-26T04:37:50;94240.75;;;-0.98;100.00
4415;BME280;2220;42.670;23.398;2023-01-26T04:40:16;94246.28;;;-1.01;100.00
4415;BME280;2220;42.670;23.398;2023-01-26T04:42:41;94251.78;;;-1.04;100.00
4415;BME280;2220;42.670;23.398;2023-01-26T04:45:09;94247.03;;;-1.07;100.00
4415;BME280;2220;42.670;23.398;2023-01-26T04:47:34;94249.22;;;-1.04;100.00
4415;BME280;2220;42.670;23.398;2023-01-26T04:50:00;94239.38;;;-1.07;100.00
4415;BME280;2220;42.670;23.398;2023-01-26T04:52:25;94234.47;;;-0.95;100.00
4415;BME280;2220;42.670;23.398;2023-01-26T04:54:50;94238.03;;;-0.96;100.00
4415;BME280;2220;42.670;23.398;2023-01-26T04:57:16;94246.84;;;-1.05;100.00
4415;BME280;2220;42.670;23.398;2023-01-26T04:59:44;94245.09;;;-0.98;100.00
4415;BME280;2220;42.670;23.398;2023-01-26T05:02:10;94237.03;;;-0.95;100.00
4415;BME280;2220;42.670;23.398;2023-01-26T05:04:35;94242.75;;;-0.87;100.00
4415;BME280;2220;42.670;23.398;2023-01-26T05:07:01;94239.00;;;-0.84;100.00
4415;BME280;2220;42.670;23.398;2023-01-26T05:09:27;94237.22;;;-0.97;100.00
4415;BME280;2220;42.670;23.398;2023-01-26T05:11:52;94244.28;;;-0.99;100.00
4415;BME280;2220;42.670;23.398;2023-01-26T05:14:17;94234.28;;;-0.87;100.00
4415;BME280;2220;42.670;23.398;2023-01-26T05:16:43;94226.22;;;-0.84;100.00
4415;BME280;2220;42.670;23.398;2023-01-26T05:19:08;94220.09;;;-0.90;100.00
4415;BME280;2220;42.670;23.398;2023-01-26T05:21:34;94219.72;;;-0.87;100.00
4415;BME280;2220;42.670;23.398;2023-01-26T05:23:59;94223.84;;;-0.79;100.00
4415;BME280;2220;42.670;23.398;2023-01-26T05:26:25;94214.63;;;-0.80;100.00
4415;BME280;2220;42.670;23.398;2023-01-26T05:28:50;94211.66;;;-0.77;100.00
4415;BME280;2220;42.670;23.398;2023-01-26T05:31:16;94209.31;;;-0.78;100.00
4415;BME280;2220;42.670;23.398;2023-01-26T05:33:41;94199.84;;;-0.71;100.00
4415;BME280;2220;42.670;23.398;2023-01-26T05:36:07;94210.25;;;-0.73;100.00
4415;BME280;2220;42.670;23.398;2023-01-26T05:38:33;94200.81;;;-0.66;100.00
4415;BME280;2220;42.670;23.398;2023-01-26T05:40:59;94201.63;;;-0.72;100.00
4415;BME280;2220;42.670;23.398;2023-01-26T05:43:27;94192.19;;;-0.71;100.00
4415;BME280;2220;42.670;23.398;2023-01-26T05:45:52;94194.53;;;-0.63;100.00
4415;BME280;2220;42.670;23.398;2023-01-26T05:48:18;94193.34;;;-0.67;100.00
4415;BME280;2220;42.670;23.398;2023-01-26T05:50:43;94184.25;;;-0.57;100.00
4415;BME280;2220;42.670;23.398;2023-01-26T05:53:09;94175.63;;;-0.62;100.00
4415;BME280;2220;42.670;23.398;2023-01-26T05:55:35;94183.91;;;-0.67;100.00
4415;BME280;2220;42.670;23.398;2023-01-26T05:58:03;94187.66;;;-0.76;100.00
4415;BME280;2220;42.670;23.398;2023-01-26T06:00:28;94188.03;;;-0.72;100.00
4415;BME280;2220;42.670;23.398;2023-01-26T06:02:54;94188.63;;;-0.70;100.00
4415;BME280;2220;42.670;23.398;2023-01-26T06:05:19;94189.00;;;-0.53;100.00
4415;BME280;2220;42.670;23.398;2023-01-26T06:07:45;94168.91;;;-0.57;100.00
4415;BME280;2220;42.670;23.398;2023-01-26T06:10:10;94167.56;;;-0.59;100.00
4415;BME280;2220;42.670;23.398;2023-01-26T06:12:36;94172.31;;;-0.69;100.00
4415;BME280;2220;42.670;23.398;2023-01-26T06:15:04;94173.28;;;-0.64;100.00
4415;BME280;2220;42.670;23.398;2023-01-26T06:17:30;94172.28;;;-0.56;100.00
4415;BME280;2220;42.670;23.398;2023-01-26T06:19:55;94165.78;;;-0.59;100.00
4415;BME280;2220;42.670;23.398;2023-01-26T06:22:21;94169.72;;;-0.56;100.00
4415;BME280;2220;42.670;23.398;2023-01-26T06:24:46;94163.41;;;-0.53;100.00
4415;BME280;2220;42.670;23.398;2023-01-26T06:27:15;94168.75;;;-0.55;100.00
4415;BME280;2220;42.670;23.398;2023-01-26T06:29:42;94154.31;;;-0.43;100.00
4415;BME280;2220;42.670;23.398;2023-01-26T06:32:09;94156.88;;;-0.43;100.00
4415;BME280;2220;42.670;23.398;2023-01-26T06:34:38;94144.28;;;-0.38;100.00
4415;BME280;2220;42.670;23.398;2023-01-26T06:37:04;94138.38;;;-0.38;100.00
4415;BME280;2220;42.670;23.398;2023-01-26T06:39:30;94140.94;;;-0.45;100.00
4415;BME280;2220;42.670;23.398;2023-01-26T06:41:55;94141.75;;;-0.44;100.00
4415;BME280;2220;42.670;23.398;2023-01-26T06:44:21;94150.00;;;-0.49;100.00
4415;BME280;2220;42.670;23.398;2023-01-26T06:46:46;94155.13;;;-0.49;100.00
4415;BME280;2220;42.670;23.398;2023-01-26T06:49:12;94144.09;;;-0.43;100.00
4415;BME280;2220;42.670;23.398;2023-01-26T06:54:12;94149.00;;;-0.41;100.00
4415;BME280;2220;42.670;23.398;2023-01-26T06:56:38;94143.69;;;-0.40;100.00
4415;BME280;2220;42.670;23.398;2023-01-26T06:59:04;94143.94;;;-0.48;100.00
4415;BME280;2220;42.670;23.398;2023-01-26T07:01:34;94149.78;;;-0.41;100.00
4415;BME280;2220;42.670;23.398;2023-01-26T07:04:01;94134.81;;;-0.31;100.00
4415;BME280;2220;42.670;23.398;2023-01-26T07:06:26;94143.25;;;-0.23;100.00
4415;BME280;2220;42.670;23.398;2023-01-26T07:08:52;94137.13;;;-0.16;100.00
4415;BME280;2220;42.670;23.398;2023-01-26T07:11:17;94135.16;;;-0.20;100.00
4415;BME280;2220;42.670;23.398;2023-01-26T07:13:44;94124.31;;;-0.16;100.00
4415;BME280;2220;42.670;23.398;2023-01-26T07:16:11;94118.97;;;-0.08;100.00
4415;BME280;2220;42.670;23.398;2023-01-26T07:18:37;94118.00;;;-0.13;100.00
4415;BME280;2220;42.670;23.398;2023-01-26T07:21:05;94122.72;;;-0.17;100.00
4415;BME280;2220;42.670;23.398;2023-01-26T07:23:30;94125.69;;;-0.20;100.00
4415;BME280;2220;42.670;23.398;2023-01-26T07:25:56;94117.47;;;-0.29;100.00
4415;BME280;2220;42.670;23.398;2023-01-26T07:28:22;94126.81;;;-0.09;100.00
4415;BME280;2220;42.670;23.398;2023-01-26T07:30:50;94129.81;;;-0.19;100.00
4415;BME280;2220;42.670;23.398;2023-01-26T07:33:15;94134.38;;;-0.21;100.00
4415;BME280;2220;42.670;23.398;2023-01-26T07:35:41;94140.63;;;-0.17;100.00
4415;BME280;2220;42.670;23.398;2023-01-26T07:38:06;94133.91;;;-0.05;100.00
4415;BME280;2220;42.670;23.398;2023-01-26T07:40:39;94127.81;;;-0.10;100.00
4415;BME280;2220;42.670;23.398;2023-01-26T07:43:04;94130.31;;;0.03;100.00
4415;BME280;2220;42.670;23.398;2023-01-26T07:45:30;94126.41;;;0.01;100.00
4415;BME280;2220;42.670;23.398;2023-01-26T07:47:56;94108.09;;;-0.03;100.00
4415;BME280;2220;42.670;23.398;2023-01-26T07:50:22;94119.41;;;0.14;100.00
4415;BME280;2220;42.670;23.398;2023-01-26T07:52:49;94120.63;;;0.12;100.00
4415;BME280;2220;42.670;23.398;2023-01-26T07:55:17;94108.38;;;0.14;100.00
4415;BME280;2220;42.670;23.398;2023-01-26T07:57:47;94102.34;;;0.08;100.00
4415;BME280;2220;42.670;23.398;2023-01-26T08:00:13;94108.56;;;0.19;100.00
4415;BME280;2220;42.670;23.398;2023-01-26T08:02:39;94093.69;;;0.34;100.00
4415;BME280;2220;42.670;23.398;2023-01-26T08:05:05;94087.25;;;0.25;100.00
4415;BME280;2220;42.670;23.398;2023-01-26T08:07:31;94075.22;;;0.25;100.00
4415;BME280;2220;42.670;23.398;2023-01-26T08:09:56;94067.03;;;0.42;100.00
4415;BME280;2220;42.670;23.398;2023-01-26T08:12:23;94038.72;;;0.30;100.00
4415;BME280;2220;42.670;23.398;2023-01-26T08:14:49;94046.94;;;0.39;100.00
4415;BME280;2220;42.670;23.398;2023-01-26T08:17:15;94052.69;;;0.34;100.00
4415;BME280;2220;42.670;23.398;2023-01-26T08:19:42;94043.59;;;0.38;100.00
4415;BME280;2220;42.670;23.398;2023-01-26T08:22:07;94038.13;;;0.35;100.00
4415;BME280;2220;42.670;23.398;2023-01-26T08:24:33;94044.38;;;0.39;100.00
4415;BME280;2220;42.670;23.398;2023-01-26T08:26:58;94048.72;;;0.38;100.00
4415;BME280;2220;42.670;23.398;2023-01-26T08:29:23;94031.63;;;0.57;100.00
4415;BME280;2220;42.670;23.398;2023-01-26T08:31:52;94038.19;;;0.46;100.00
4415;BME280;2220;42.670;23.398;2023-01-26T08:34:18;94024.28;;;0.61;100.00
4415;BME280;2220;42.670;23.398;2023-01-26T08:36:46;94016.09;;;0.70;100.00
4415;BME280;2220;42.670;23.398;2023-01-26T08:39:11;94016.88;;;0.71;100.00
4415;BME280;2220;42.670;23.398;2023-01-26T08:41:37;94016.44;;;0.80;100.00
4415;BME280;2220;42.670;23.398;2023-01-26T08:44:05;93999.75;;;0.90;100.00
4415;BME280;2220;42.670;23.398;2023-01-26T08:46:31;94000.03;;;1.00;100.00
4415;BME280;2220;42.670;23.398;2023-01-26T08:48:57;93991.78;;;0.98;100.00
4415;BME280;2220;42.670;23.398;2023-01-26T08:51:23;93994.53;;;0.96;100.00
4415;BME280;2220;42.670;23.398;2023-01-26T08:53:48;93985.00;;;1.03;100.00
4415;BME280;2220;42.670;23.398;2023-01-26T08:56:14;93994.97;;;0.93;100.00
4415;BME280;2220;42.670;23.398;2023-01-26T08:58:39;94008.34;;;0.77;100.00
4415;BME280;2220;42.670;23.398;2023-01-26T09:01:06;93996.69;;;0.81;100.00
4415;BME280;2220;42.670;23.398;2023-01-26T09:03:33;93994.69;;;0.83;100.00
4415;BME280;2220;42.670;23.398;2023-01-26T09:06:03;93997.59;;;0.87;100.00
4415;BME280;2220;42.670;23.398;2023-01-26T09:08:29;94004.09;;;0.89;100.00
4415;BME280;2220;42.670;23.398;2023-01-26T09:10:57;94006.72;;;0.82;100.00
4415;BME280;2220;42.670;23.398;2023-01-26T09:13:23;93999.53;;;0.91;100.00
4415;BME280;2220;42.670;23.398;2023-01-26T09:15:49;93989.06;;;1.11;100.00
4415;BME280;2220;42.670;23.398;2023-01-26T09:18:14;93984.09;;;0.98;100.00
4415;BME280;2220;42.670;23.398;2023-01-26T09:20:40;93986.72;;;0.91;100.00
4415;BME280;2220;42.670;23.398;2023-01-26T09:23:06;93988.78;;;0.82;100.00
4415;BME280;2220;42.670;23.398;2023-01-26T09:25:35;93982.81;;;0.89;100.00
4415;BME280;2220;42.670;23.398;2023-01-26T09:28:01;93991.91;;;0.84;100.00
4415;BME280;2220;42.670;23.398;2023-01-26T09:30:27;93984.50;;;0.95;100.00
4415;BME280;2220;42.670;23.398;2023-01-26T09:32:57;93984.66;;;0.81;100.00
4415;BME280;2220;42.670;23.398;2023-01-26T09:35:23;93980.53;;;0.99;100.00
4415;BME280;2220;42.670;23.398;2023-01-26T09:37:48;93971.56;;;0.90;100.00
4415;BME280;2220;42.670;23.398;2023-01-26T09:40:20;93960.22;;;0.79;100.00
4415;BME280;2220;42.670;23.398;2023-01-26T09:48:25;93983.94;;;0.93;100.00
4415;BME280;2220;42.670;23.398;2023-01-26T09:51:03;93980.81;;;0.91;100.00
4415;BME280;2220;42.670;23.398;2023-01-26T09:54:02;93975.53;;;1.04;100.00
4415;BME280;2220;42.670;23.398;2023-01-26T09:56:27;93950.38;;;0.94;100.00
4415;BME280;2220;42.670;23.398;2023-01-26T10:01:35;93965.63;;;1.07;100.00
4415;BME280;2220;42.670;23.398;2023-01-26T10:06:51;93972.47;;;1.14;100.00
4415;BME280;2220;42.670;23.398;2023-01-26T10:09:26;93977.75;;;1.00;100.00
4415;BME280;2220;42.670;23.398;2023-01-26T10:11:57;93971.88;;;1.11;100.00
4415;BME280;2220;42.670;23.398;2023-01-26T10:14:48;93970.69;;;1.14;100.00
4415;BME280;2220;42.670;23.398;2023-01-26T10:17:19;93971.25;;;1.16;100.00
4415;BME280;2220;42.670;23.398;2023-01-26T10:19:50;93963.81;;;1.26;100.00
4415;BME280;2220;42.670;23.398;2023-01-26T10:22:24;93955.72;;;1.29;100.00
4415;BME280;2220;42.670;23.398;2023-01-26T10:24:55;93929.38;;;1.34;100.00
4415;BME280;2220;42.670;23.398;2023-01-26T10:27:21;93939.41;;;1.35;100.00
4415;BME280;2220;42.670;23.398;2023-01-26T10:29:47;93927.59;;;1.34;100.00
4415;BME280;2220;42.670;23.398;2023-01-26T10:32:13;93924.63;;;1.19;100.00
4415;BME280;2220;42.670;23.398;2023-01-26T10:34:41;93915.81;;;1.15;100.00
4415;BME280;2220;42.670;23.398;2023-01-26T10:42:26;93904.94;;;1.31;100.00
4415;BME280;2220;42.670;23.398;2023-01-26T10:44:52;93902.91;;;1.22;100.00
4415;BME280;2220;42.670;23.398;2023-01-26T10:47:19;93884.44;;;1.43;100.00
4415;BME280;2220;42.670;23.398;2023-01-26T10:49:46;93886.75;;;1.33;100.00
4415;BME280;2220;42.670;23.398;2023-01-26T10:52:22;93872.44;;;1.55;100.00
4415;BME280;2220;42.670;23.398;2023-01-26T10:55:09;93874.00;;;1.56;100.00
4415;BME280;2220;42.670;23.398;2023-01-26T10:57:38;93861.16;;;1.68;100.00
4415;BME280;2220;42.670;23.398;2023-01-26T11:00:18;93856.47;;;1.65;100.00
4415;BME280;2220;42.670;23.398;2023-01-26T11:02:54;93837.75;;;1.53;100.00
4415;BME280;2220;42.670;23.398;2023-01-26T11:05:21;93836.28;;;1.57;100.00
4415;BME280;2220;42.670;23.398;2023-01-26T11:07:49;93844.63;;;1.40;100.00
4415;BME280;2220;42.670;23.398;2023-01-26T11:15:35;93840.41;;;1.46;100.00
4415;BME280;2220;42.670;23.398;2023-01-26T11:34:44;93782.81;;;1.30;100.00
4415;BME280;2220;42.670;23.398;2023-01-26T11:42:48;93787.75;;;1.55;100.00
4415;BME280;2220;42.670;23.398;2023-01-26T11:48:01;93772.66;;;1.59;100.00
4415;BME280;2220;42.670;23.398;2023-01-26T11:50:46;93771.22;;;1.75;100.00
4415;BME280;2220;42.670;23.398;2023-01-26T12:01:40;93779.78;;;1.33;100.00
4415;BME280;2220;42.670;23.398;2023-01-26T12:04:13;93780.03;;;1.32;100.00
4415;BME280;2220;42.670;23.398;2023-01-26T12:06:44;93776.91;;;1.42;100.00
4415;BME280;2220;42.670;23.398;2023-01-26T12:09:22;93776.81;;;1.36;100.00
4415;BME280;2220;42.670;23.398;2023-01-26T12:12:03;93773.31;;;1.43;100.00
4415;BME280;2220;42.670;23.398;2023-01-26T12:14:35;93770.09;;;1.47;100.00
4415;BME280;2220;42.670;23.398;2023-01-26T12:22:36;93759.81;;;1.35;100.00
4415;BME280;2220;42.670;23.398;2023-01-26T12:25:22;93749.69;;;1.40;100.00
4415;BME280;2220;42.670;23.398;2023-01-26T12:28:21;93727.91;;;1.43;100.00
4415;BME280;2220;42.670;23.398;2023-01-26T12:33:32;93720.47;;;1.53;100.00
4415;BME280;2220;42.670;23.398;2023-01-26T12:36:32;93720.34;;;1.48;100.00
4415;BME280;2220;42.670;23.398;2023-01-26T12:39:11;93718.09;;;1.52;100.00
4415;BME280;2220;42.670;23.398;2023-01-26T12:42:02;93711.88;;;1.48;100.00
4415;BME280;2220;42.670;23.398;2023-01-26T12:44:41;93703.03;;;1.55;100.00
4415;BME280;2220;42.670;23.398;2023-01-26T12:47:21;93711.75;;;1.54;100.00
4415;BME280;2220;42.670;23.398;2023-01-26T12:59:27;93710.41;;;1.28;100.00
4415;BME280;2220;42.670;23.398;2023-01-26T13:01:55;93698.25;;;1.35;100.00
4415;BME280;2220;42.670;23.398;2023-01-26T13:04:21;93702.16;;;1.26;100.00
4415;BME280;2220;42.670;23.398;2023-01-26T13:07:27;93702.28;;;1.31;100.00
4415;BME280;2220;42.670;23.398;2023-01-26T13:13:33;93703.28;;;1.07;100.00
4415;BME280;2220;42.670;23.398;2023-01-26T13:15:39;93716.75;;;1.02;100.00
4415;BME280;2220;42.670;23.398;2023-01-26T13:18:04;93722.22;;;1.06;100.00
4415;BME280;2220;42.670;23.398;2023-01-26T13:28:34;93697.59;;;1.17;100.00
4415;BME280;2220;42.670;23.398;2023-01-26T13:31:05;93696.69;;;1.11;100.00
4415;BME280;2220;42.670;23.398;2023-01-26T13:33:31;93692.91;;;1.14;100.00
4415;BME280;2220;42.670;23.398;2023-01-26T13:35:57;93689.75;;;1.11;100.00
4415;BME280;2220;42.670;23.398;2023-01-26T13:38:35;93679.06;;;1.03;100.00
4415;BME280;2220;42.670;23.398;2023-01-26T13:41:17;93680.19;;;1.19;100.00
4415;BME280;2220;42.670;23.398;2023-01-26T13:43:52;93677.72;;;1.00;100.00
4415;BME280;2220;42.670;23.398;2023-01-26T13:48:51;93680.75;;;1.09;100.00
4415;BME280;2220;42.670;23.398;2023-01-26T13:51:29;93683.53;;;1.07;100.00
4415;BME280;2220;42.670;23.398;2023-01-26T13:54:12;93672.84;;;1.22;100.00
4415;BME280;2220;42.670;23.398;2023-01-26T13:56:40;93669.59;;;1.15;100.00
4415;BME280;2220;42.670;23.398;2023-01-26T14:01:45;93655.78;;;1.16;100.00
4415;BME280;2220;42.670;23.398;2023-01-26T14:04:31;93645.75;;;1.15;100.00
4415;BME280;2220;42.670;23.398;2023-01-26T14:07:13;93638.91;;;1.20;100.00
4415;BME280;2220;42.670;23.398;2023-01-26T14:09:45;93640.03;;;1.24;100.00
4415;BME280;2220;42.670;23.398;2023-01-26T14:12:20;93636.94;;;1.22;100.00
4415;BME280;2220;42.670;23.398;2023-01-26T14:14:53;93628.31;;;1.40;100.00
4415;BME280;2220;42.670;23.398;2023-01-26T14:17:47;93622.16;;;1.41;100.00
4415;BME280;2220;42.670;23.398;2023-01-26T14:20:32;93620.50;;;1.47;100.00
4415;BME280;2220;42.670;23.398;2023-01-26T14:25:57;93623.41;;;1.38;100.00
4415;BME280;2220;42.670;23.398;2023-01-26T14:28:24;93608.78;;;1.39;100.00
4415;BME280;2220;42.670;23.398;2023-01-26T14:30:57;93609.03;;;1.37;100.00
4415;BME280;2220;42.670;23.398;2023-01-26T14:33:24;93598.19;;;1.47;100.00
4415;BME280;2220;42.670;23.398;2023-01-26T14:35:58;93593.53;;;1.32;100.00
4415;BME280;2220;42.670;23.398;2023-01-26T14:38:24;93597.31;;;1.30;100.00
4415;BME280;2220;42.670;23.398;2023-01-26T14:40:55;93607.25;;;1.26;100.00
4415;BME280;2220;42.670;23.398;2023-01-26T14:43:21;93603.00;;;1.32;100.00
4415;BME280;2220;42.670;23.398;2023-01-26T14:46:07;93601.34;;;1.37;100.00
4415;BME280;2220;42.670;23.398;2023-01-26T14:48:40;93587.88;;;1.59;100.00
4415;BME280;2220;42.670;23.398;2023-01-26T14:51:14;93584.94;;;1.67;100.00
4415;BME280;2220;42.670;23.398;2023-01-26T14:53:48;93586.50;;;1.68;100.00
4415;BME280;2220;42.670;23.398;2023-01-26T14:56:19;93589.69;;;1.47;100.00
4415;BME280;2220;42.670;23.398;2023-01-26T14:58:49;93588.16;;;1.46;100.00
4415;BME280;2220;42.670;23.398;2023-01-26T15:01:23;93586.78;;;1.55;100.00